createdAt,value
2018-07-21T00:01:37.546Z,6.23
2018-07-21T00:04:06.243Z,4.63
2018-07-21T00:06:34.613Z,5.17
2018-07-21T00:09:03.023Z,5.20
2018-07-21T00:11:31.398Z,4.03
2018-07-21T00:13:59.775Z,5.07
2018-07-21T00:16:28.135Z,4.17
2018-07-21T00:18:56.480Z,5.80
2018-07-21T00:21:24.916Z,5.27
2018-07-21T00:23:53.247Z,5.03
2018-07-21T00:26:21.658Z,4.40
2018-07-21T00:28:49.726Z,5.47
2018-07-21T00:31:18.095Z,5.70
2018-07-21T00:33:46.424Z,5.17
2018-07-21T00:36:14.784Z,6.53
2018-07-21T00:38:43.163Z,4.13
2018-07-21T00:41:11.536Z,4.80
2018-07-21T00:43:39.869Z,5.40
2018-07-21T00:46:08.232Z,5.37
2018-07-21T00:48:36.576Z,6.07
2018-07-21T00:51:05.012Z,4.17
2018-07-21T00:53:33.363Z,4.40
2018-07-21T00:56:02.954Z,5.67
2018-07-21T00:58:31.823Z,4.20
2018-07-21T01:01:00.624Z,4.43
2018-07-21T01:03:28.969Z,5.47
2018-07-21T01:05:57.413Z,6.30
2018-07-21T01:08:25.768Z,4.70
2018-07-21T01:10:54.141Z,4.57
2018-07-21T01:13:22.219Z,4.00
2018-07-21T01:15:50.544Z,3.90
2018-07-21T01:18:18.901Z,4.17
2018-07-21T01:20:47.306Z,5.37
2018-07-21T01:23:15.651Z,5.93
2018-07-21T01:25:44.005Z,4.10
2018-07-21T01:28:12.082Z,4.40
2018-07-21T01:30:40.412Z,4.30
2018-07-21T01:33:08.796Z,4.03
2018-07-21T01:35:37.115Z,6.63
2018-07-21T01:38:05.286Z,4.93
2018-07-21T01:40:33.632Z,5.63
2018-07-21T01:43:01.996Z,4.47
2018-07-21T01:45:30.351Z,4.03
2018-07-21T01:47:58.711Z,4.23
2018-07-21T01:50:27.054Z,5.57
2018-07-21T01:52:55.510Z,4.43
2018-07-21T01:55:23.844Z,6.10
2018-07-21T01:57:52.223Z,5.00
2018-07-21T02:00:20.591Z,5.33
2018-07-21T02:02:48.953Z,4.63
2018-07-21T02:05:17.357Z,3.97
2018-07-21T02:07:45.449Z,3.80
2018-07-21T02:10:13.801Z,5.37
2018-07-21T02:12:42.155Z,3.73
2018-07-21T02:15:10.474Z,4.80
2018-07-21T02:17:38.562Z,3.80
2018-07-21T02:20:07.119Z,4.20
2018-07-21T02:22:35.471Z,3.87
2018-07-21T02:25:03.855Z,5.53
2018-07-21T02:27:32.376Z,4.83
2018-07-21T02:30:00.455Z,5.37
2018-07-21T02:32:28.836Z,4.70
2018-07-21T02:34:57.163Z,3.80
2018-07-21T02:37:25.504Z,3.87
2018-07-21T02:39:53.828Z,3.60
2018-07-21T02:42:22.181Z,3.83
2018-07-21T02:44:50.521Z,3.57
2018-07-21T02:47:18.596Z,3.47
2018-07-21T02:49:46.649Z,3.77
2018-07-21T02:52:14.987Z,3.40
2018-07-21T02:54:43.308Z,4.53
2018-07-21T02:57:11.679Z,4.03
2018-07-21T02:59:40.028Z,3.87
2018-07-21T03:02:08.373Z,5.13
2018-07-21T03:04:36.697Z,10.13
2018-07-21T03:07:05.024Z,4.27
2018-07-21T03:09:33.380Z,4.27
2018-07-21T03:12:01.728Z,3.30
2018-07-21T03:14:30.081Z,6.33
2018-07-21T03:16:58.400Z,4.20
2018-07-21T03:19:26.741Z,5.17
2018-07-21T03:21:55.076Z,3.23
2018-07-21T03:24:23.420Z,5.83
2018-07-21T03:26:51.752Z,3.93
2018-07-21T03:29:20.483Z,5.60
2018-07-21T03:31:48.796Z,4.90
2018-07-21T03:34:17.140Z,4.43
2018-07-21T03:36:45.452Z,4.13
2018-07-21T03:39:13.808Z,4.00
2018-07-21T03:41:42.123Z,4.00
2018-07-21T03:44:10.462Z,6.73
2018-07-21T03:46:38.784Z,3.53
2018-07-21T03:49:06.865Z,5.17
2018-07-21T03:51:35.187Z,3.90
2018-07-21T03:54:03.560Z,6.67
2018-07-21T03:56:31.908Z,5.93
2018-07-21T03:59:00.283Z,5.03
2018-07-21T04:01:28.341Z,6.20
2018-07-21T04:03:56.452Z,5.40
2018-07-21T04:06:24.748Z,3.67
2018-07-21T04:08:53.150Z,3.60
2018-07-21T04:11:21.453Z,3.70
2018-07-21T04:13:49.795Z,5.10
2018-07-21T04:16:18.122Z,3.23
2018-07-21T04:18:46.471Z,3.33
2018-07-21T04:21:14.815Z,4.20
2018-07-21T04:23:43.163Z,3.77
2018-07-21T04:26:11.487Z,5.60
2018-07-21T04:28:39.827Z,3.30
2018-07-21T04:31:08.255Z,4.40
2018-07-21T04:33:36.608Z,5.37
2018-07-21T04:36:04.935Z,3.50
2018-07-21T04:38:33.276Z,3.87
2018-07-21T04:41:01.619Z,4.27
2018-07-21T04:43:30.011Z,5.00
2018-07-21T04:45:58.340Z,4.30
2018-07-21T04:48:26.683Z,3.80
2018-07-21T04:50:55.020Z,4.33
2018-07-21T04:53:23.387Z,3.80
2018-07-21T04:55:51.714Z,4.40
2018-07-21T04:58:20.099Z,4.90
2018-07-21T05:00:48.506Z,3.43
2018-07-21T05:03:16.779Z,5.03
2018-07-21T05:05:45.125Z,5.17
2018-07-21T05:08:13.468Z,4.13
2018-07-21T05:10:41.812Z,4.73
2018-07-21T05:13:10.151Z,3.97
2018-07-21T05:15:38.505Z,4.00
2018-07-21T05:18:06.580Z,4.30
2018-07-21T05:20:34.965Z,4.23
2018-07-21T05:23:03.107Z,4.07
2018-07-21T05:25:31.459Z,3.67
2018-07-21T05:27:59.787Z,3.13
2018-07-21T05:30:28.388Z,6.50
2018-07-21T05:32:56.703Z,3.77
2018-07-21T05:35:25.047Z,5.03
2018-07-21T05:37:53.433Z,3.60
2018-07-21T05:40:21.519Z,3.03
2018-07-21T05:42:49.847Z,5.60
2018-07-21T05:45:18.195Z,4.57
2018-07-21T05:47:46.534Z,5.43
2018-07-21T05:50:14.611Z,3.77
2018-07-21T05:52:42.964Z,4.60
2018-07-21T05:55:11.347Z,4.50
2018-07-21T05:57:39.691Z,4.03
2018-07-21T06:00:10.700Z,4.67
2018-07-21T06:02:39.018Z,7.17
2018-07-21T06:05:10.238Z,4.47
2018-07-21T06:07:40.704Z,3.40
2018-07-21T06:10:09.215Z,3.50
2018-07-21T06:12:37.588Z,5.73
2018-07-21T06:15:06.219Z,4.77
2018-07-21T06:17:34.571Z,3.10
2018-07-21T06:20:03.147Z,5.23
2018-07-21T06:22:31.827Z,3.23
2018-07-21T06:25:00.174Z,4.93
2018-07-21T06:27:28.491Z,3.30
2018-07-21T06:29:56.864Z,3.53
2018-07-21T06:32:25.179Z,4.33
2018-07-21T06:34:53.522Z,5.13
2018-07-21T06:37:21.847Z,3.90
2018-07-21T06:39:50.188Z,3.57
2018-07-21T06:42:18.543Z,3.30
2018-07-21T06:44:46.884Z,6.03
2018-07-21T06:47:15.246Z,3.63
2018-07-21T06:49:43.618Z,5.17
2018-07-21T06:52:11.927Z,5.27
2018-07-21T06:54:40.278Z,5.87
2018-07-21T06:57:08.655Z,3.43
2018-07-21T06:59:36.724Z,5.10
2018-07-21T07:02:04.792Z,3.20
2018-07-21T07:04:33.099Z,4.70
2018-07-21T07:07:01.456Z,3.73
2018-07-21T07:09:29.774Z,3.33
2018-07-21T07:11:58.117Z,4.67
2018-07-21T07:14:26.168Z,4.77
2018-07-21T07:16:54.516Z,3.70
2018-07-21T07:19:22.827Z,4.57
2018-07-21T07:21:51.187Z,3.90
2018-07-21T07:24:19.507Z,3.27
2018-07-21T07:26:47.927Z,4.37
2018-07-21T07:29:16.261Z,5.57
2018-07-21T07:31:44.715Z,4.23
2018-07-21T07:34:13.027Z,4.17
2018-07-21T07:36:41.396Z,4.53
2018-07-21T07:39:10.490Z,4.80
2018-07-21T07:41:39.280Z,4.33
2018-07-21T07:44:07.957Z,3.67
2018-07-21T07:46:36.142Z,4.63
2018-07-21T07:49:04.509Z,3.67
2018-07-21T07:51:32.931Z,7.07
2018-07-21T07:54:01.252Z,4.17
2018-07-21T07:56:29.615Z,7.43
2018-07-21T07:58:58.223Z,4.17
2018-07-21T08:01:26.651Z,4.33
2018-07-21T08:03:55.005Z,3.70
2018-07-21T08:06:23.404Z,3.90
2018-07-21T08:08:51.749Z,4.33
2018-07-21T08:11:20.126Z,3.30
2018-07-21T08:13:48.475Z,3.00
2018-07-21T08:16:16.951Z,3.20
2018-07-21T08:18:45.307Z,4.40
2018-07-21T08:21:13.811Z,4.47
2018-07-21T08:23:42.171Z,5.23
2018-07-21T08:26:10.586Z,3.27
2018-07-21T08:28:38.922Z,4.57
2018-07-21T08:31:07.291Z,4.73
2018-07-21T08:33:35.343Z,4.27
2018-07-21T08:36:03.837Z,5.20
2018-07-21T08:38:32.216Z,5.13
2018-07-21T08:41:00.356Z,3.90
2018-07-21T08:43:28.763Z,8.50
2018-07-21T08:45:56.859Z,5.10
2018-07-21T08:48:25.262Z,3.93
2018-07-21T08:50:53.693Z,5.93
2018-07-21T08:53:22.559Z,15.23
2018-07-21T08:55:50.922Z,7.87
2018-07-21T08:58:19.012Z,3.73
2018-07-21T09:00:47.380Z,5.73
2018-07-21T09:03:15.784Z,5.63
2018-07-21T09:05:44.261Z,6.70
2018-07-21T09:08:12.621Z,3.23
2018-07-21T09:10:41.010Z,4.23
2018-07-21T09:13:09.480Z,6.30
2018-07-21T09:15:37.880Z,6.10
2018-07-21T09:18:06.316Z,5.17
2018-07-21T09:20:34.660Z,4.90
2018-07-21T09:23:03.089Z,6.87
2018-07-21T09:25:31.496Z,6.07
2018-07-21T09:27:59.884Z,3.73
2018-07-21T09:30:28.292Z,4.70
2018-07-21T09:32:56.404Z,5.37
2018-07-21T09:35:24.761Z,3.90
2018-07-21T09:37:58.686Z,4.97
2018-07-21T09:40:27.058Z,4.23
2018-07-21T09:42:55.448Z,5.47
2018-07-21T09:45:23.868Z,6.23
2018-07-21T09:47:52.219Z,4.30
2018-07-21T09:50:20.552Z,4.80
2018-07-21T09:52:48.911Z,5.67
2018-07-21T09:55:17.223Z,5.07
2018-07-21T09:57:45.686Z,6.37
2018-07-21T10:00:18.235Z,4.40
2018-07-21T10:02:46.580Z,4.33
2018-07-21T10:05:14.895Z,5.07
2018-07-21T10:07:43.235Z,6.97
2018-07-21T10:10:11.582Z,4.13
2018-07-21T10:12:39.951Z,6.77
2018-07-21T10:15:08.285Z,3.77
2018-07-21T10:17:36.683Z,4.43
2018-07-21T10:20:05.227Z,4.67
2018-07-21T10:22:33.599Z,4.93
2018-07-21T10:25:07.253Z,5.37
2018-07-21T10:27:41.982Z,5.50
2018-07-21T10:30:10.407Z,5.90
2018-07-21T10:32:38.900Z,5.90
2018-07-21T10:35:07.297Z,6.27
2018-07-21T10:37:35.720Z,5.00
2018-07-21T10:40:04.108Z,4.77
2018-07-21T10:42:33.705Z,5.63
2018-07-21T10:45:02.079Z,4.63
2018-07-21T10:47:30.389Z,4.73
2018-07-21T10:49:58.715Z,6.07
2018-07-21T10:52:27.039Z,4.00
2018-07-21T10:54:55.386Z,4.53
2018-07-21T10:57:23.739Z,5.10
2018-07-21T10:59:52.099Z,5.40
2018-07-21T11:02:20.437Z,7.07
2018-07-21T11:04:48.783Z,5.33
2018-07-21T11:07:17.114Z,8.13
2018-07-21T11:09:45.459Z,6.53
2018-07-21T11:12:13.778Z,6.33
2018-07-21T11:14:42.140Z,4.80
2018-07-21T11:17:10.522Z,7.40
2018-07-21T11:19:38.879Z,6.80
2018-07-21T11:22:07.209Z,5.70
2018-07-21T11:24:35.572Z,8.57
2018-07-21T11:27:03.911Z,8.33
2018-07-21T11:29:32.271Z,14.73
2018-07-21T11:32:00.630Z,11.23
2018-07-21T11:34:28.706Z,6.00
2018-07-21T11:36:56.758Z,5.30
2018-07-21T11:39:25.166Z,5.07
2018-07-21T11:41:53.480Z,4.37
2018-07-21T11:44:21.932Z,5.00
2018-07-21T11:46:50.284Z,6.63
2018-07-21T11:49:18.639Z,6.28
2018-07-21T11:51:46.971Z,6.43
2018-07-21T11:54:15.328Z,6.70
2018-07-21T11:56:43.394Z,5.07
2018-07-21T11:59:11.828Z,6.53
2018-07-21T12:01:41.637Z,7.33
2018-07-21T12:04:09.780Z,7.15
2018-07-21T12:06:37.830Z,6.65
2018-07-21T12:09:07.749Z,5.67
2018-07-21T12:11:36.135Z,5.00
2018-07-21T12:14:04.493Z,5.55
2018-07-21T12:16:32.832Z,5.80
2018-07-21T12:19:01.205Z,5.53
2018-07-21T12:21:29.556Z,6.67
2018-07-21T12:23:57.636Z,5.97
2018-07-21T12:26:25.729Z,5.55
2018-07-21T12:28:54.127Z,5.17
2018-07-21T12:31:22.468Z,7.15
2018-07-21T12:33:50.531Z,5.10
2018-07-21T12:36:18.630Z,4.67
2018-07-21T12:38:47.047Z,6.00
2018-07-21T12:41:15.403Z,5.90
2018-07-21T12:43:43.737Z,4.90
2018-07-21T12:46:12.092Z,6.03
2018-07-21T12:48:40.611Z,5.45
2018-07-21T12:51:08.710Z,4.67
2018-07-21T12:53:37.066Z,7.00
2018-07-21T12:56:05.190Z,5.12
2018-07-21T12:58:33.925Z,5.35
2018-07-21T13:01:02.008Z,4.95
2018-07-21T13:03:30.343Z,5.85
2018-07-21T13:05:58.709Z,8.58
2018-07-21T13:08:27.232Z,6.15
2018-07-21T13:10:55.622Z,6.30
2018-07-21T13:13:23.731Z,7.20
2018-07-21T13:15:52.098Z,5.22
2018-07-21T13:18:20.448Z,5.78
2018-07-21T13:20:48.543Z,7.28
2018-07-21T13:23:16.884Z,8.10
2018-07-21T13:25:45.247Z,7.25
2018-07-21T13:28:13.583Z,6.35
2018-07-21T13:30:41.935Z,6.83
2018-07-21T13:33:10.318Z,8.10
2018-07-21T13:35:38.657Z,6.78
2018-07-21T13:38:07.011Z,8.65
2018-07-21T13:40:35.372Z,10.43
2018-07-21T13:43:03.734Z,8.90
2018-07-21T13:45:31.821Z,9.98
2018-07-21T13:48:00.151Z,5.37
2018-07-21T13:50:28.570Z,6.50
2018-07-21T13:52:56.957Z,8.60
2018-07-21T13:55:25.328Z,13.38
2018-07-21T13:57:53.401Z,8.23
2018-07-21T14:00:21.507Z,5.67
2018-07-21T14:02:49.856Z,7.20
2018-07-21T14:05:17.949Z,6.10
2018-07-21T14:07:46.289Z,7.28
2018-07-21T14:10:14.649Z,8.55
2018-07-21T14:12:43.019Z,7.40
2018-07-21T14:15:11.362Z,6.17
2018-07-21T14:17:40.524Z,7.08
2018-07-21T14:20:08.895Z,7.22
2018-07-21T14:22:37.259Z,7.72
2018-07-21T14:25:05.571Z,6.03
2018-07-21T14:27:33.647Z,6.03
2018-07-21T14:30:01.800Z,5.50
2018-07-21T14:32:29.835Z,7.35
2018-07-21T14:34:58.175Z,7.17
2018-07-21T14:37:26.263Z,9.28
2018-07-21T14:39:54.595Z,8.38
2018-07-21T14:42:22.964Z,5.25
2018-07-21T14:44:51.303Z,8.65
2018-07-21T14:47:19.651Z,7.53
2018-07-21T14:49:47.979Z,5.40
2018-07-21T14:52:16.335Z,8.03
2018-07-21T14:54:44.975Z,5.72
2018-07-21T14:57:13.228Z,9.03
2018-07-21T14:59:41.579Z,8.83
2018-07-21T15:02:09.927Z,14.30
2018-07-21T15:04:38.255Z,12.13
2018-07-21T15:07:06.624Z,11.22
2018-07-21T15:09:34.956Z,7.65
2018-07-21T15:12:03.352Z,10.20
2018-07-21T15:14:31.411Z,10.30
2018-07-21T15:16:59.748Z,8.60
2018-07-21T15:19:28.071Z,7.97
2018-07-21T15:21:56.440Z,6.28
2018-07-21T15:24:24.792Z,9.48
2018-07-21T15:26:53.136Z,8.15
2018-07-21T15:29:21.462Z,6.67
2018-07-21T15:31:49.812Z,9.73
2018-07-21T15:34:18.144Z,7.00
2018-07-21T15:36:46.512Z,6.97
2018-07-21T15:39:14.861Z,9.45
2018-07-21T15:41:43.224Z,8.45
2018-07-21T15:44:11.552Z,11.40
2018-07-21T15:46:39.908Z,7.92
2018-07-21T15:49:08.234Z,13.45
2018-07-21T15:51:36.583Z,7.62
2018-07-21T15:54:04.921Z,9.28
2018-07-21T15:56:33.263Z,11.35
2018-07-21T15:59:01.624Z,8.63
2018-07-21T16:01:29.984Z,7.58
2018-07-21T16:03:58.335Z,8.98
2018-07-21T16:06:26.708Z,8.73
2018-07-21T16:08:55.059Z,13.78
2018-07-21T16:11:23.371Z,10.25
2018-07-21T16:13:51.733Z,10.58
2018-07-21T16:16:19.786Z,8.80
2018-07-21T16:18:48.178Z,10.45
2018-07-21T16:21:16.491Z,6.00
2018-07-21T16:23:44.835Z,8.35
2018-07-21T16:26:12.886Z,6.28
2018-07-21T16:28:41.239Z,7.50
2018-07-21T16:31:09.548Z,6.85
2018-07-21T16:33:37.886Z,6.15
2018-07-21T16:36:06.220Z,10.15
2018-07-21T16:38:34.306Z,9.93
2018-07-21T16:41:02.391Z,7.90
2018-07-21T16:43:30.727Z,8.98
2018-07-21T16:45:59.076Z,7.40
2018-07-21T16:48:27.430Z,7.90
2018-07-21T16:50:55.765Z,8.35
2018-07-21T16:53:24.116Z,7.35
2018-07-21T16:55:52.479Z,6.67
2018-07-21T16:58:20.851Z,6.75
2018-07-21T17:00:49.201Z,7.87
2018-07-21T17:03:17.290Z,7.50
2018-07-21T17:05:45.631Z,8.45
2018-07-21T17:08:14.112Z,10.20
2018-07-21T17:10:42.551Z,7.37
2018-07-21T17:13:10.918Z,8.80
2018-07-21T17:15:39.259Z,10.58
2018-07-21T17:18:07.611Z,8.33
2018-07-21T17:20:35.959Z,11.30
2018-07-21T17:23:04.805Z,12.40
2018-07-21T17:25:32.964Z,6.55
2018-07-21T17:28:01.353Z,7.58
2018-07-21T17:30:30.164Z,6.50
2018-07-21T17:32:58.498Z,8.65
2018-07-21T17:35:26.827Z,9.05
2018-07-21T17:37:55.193Z,6.97
2018-07-21T17:40:23.540Z,8.28
2018-07-21T17:42:52.043Z,12.70
2018-07-21T17:45:20.375Z,8.20
2018-07-21T17:47:48.711Z,10.25
2018-07-21T17:50:17.058Z,7.78
2018-07-21T17:52:45.386Z,10.78
2018-07-21T17:55:13.474Z,6.62
2018-07-21T17:57:41.541Z,10.65
2018-07-21T18:00:09.896Z,6.30
2018-07-21T18:02:38.272Z,9.00
2018-07-21T18:05:06.871Z,7.55
2018-07-21T18:07:35.189Z,9.15
2018-07-21T18:10:03.559Z,6.90
2018-07-21T18:12:31.912Z,7.40
2018-07-21T18:14:59.994Z,6.83
2018-07-21T18:17:28.039Z,7.80
2018-07-21T18:19:56.423Z,6.87
2018-07-21T18:22:24.749Z,12.10
2018-07-21T18:24:53.106Z,11.28
2018-07-21T18:27:21.465Z,8.80
2018-07-21T18:29:49.553Z,10.50
2018-07-21T18:32:17.714Z,9.93
2018-07-21T18:34:46.107Z,8.88
2018-07-21T18:37:14.506Z,7.25
2018-07-21T18:39:42.919Z,9.13
2018-07-21T18:42:11.250Z,13.08
2018-07-21T18:44:39.377Z,8.50
2018-07-21T18:47:07.716Z,9.23
2018-07-21T18:49:36.061Z,7.37
2018-07-21T18:52:04.498Z,8.75
2018-07-21T18:54:32.855Z,8.38
2018-07-21T18:57:01.237Z,9.30
2018-07-21T18:59:29.607Z,14.28
2018-07-21T19:01:58.025Z,7.90
2018-07-21T19:04:26.463Z,12.30
2018-07-21T19:06:54.781Z,10.63
2018-07-21T19:09:23.157Z,12.00
2018-07-21T19:11:56.758Z,9.45
2018-07-21T19:14:25.140Z,10.45
2018-07-21T19:16:53.487Z,9.70
2018-07-21T19:19:21.547Z,10.82
2018-07-21T19:21:49.895Z,15.00
2018-07-21T19:24:18.242Z,8.70
2018-07-21T19:26:51.879Z,9.30
2018-07-21T19:29:20.599Z,7.72
2018-07-21T19:31:54.300Z,10.38
2018-07-21T19:34:22.635Z,9.80
2018-07-21T19:36:50.987Z,13.00
2018-07-21T19:39:19.331Z,12.23
2018-07-21T19:41:52.960Z,13.28
2018-07-21T19:44:21.295Z,10.63
2018-07-21T19:46:49.655Z,15.90
2018-07-21T19:49:17.999Z,15.43
2018-07-21T19:51:46.379Z,20.37
2018-07-21T19:54:14.711Z,12.10
2018-07-21T19:56:43.116Z,8.28
2018-07-21T19:59:11.446Z,11.68
2018-07-21T20:01:39.795Z,8.45
2018-07-21T20:04:08.166Z,7.47
2018-07-21T20:06:36.582Z,9.50
2018-07-21T20:09:06.864Z,11.18
2018-07-21T20:11:35.221Z,12.00
2018-07-21T20:14:03.592Z,10.68
2018-07-21T20:16:31.947Z,8.50
2018-07-21T20:19:00.255Z,11.12
2018-07-21T20:21:28.600Z,8.28
2018-07-21T20:23:56.960Z,12.23
2018-07-21T20:26:25.280Z,7.45
2018-07-21T20:28:53.627Z,10.68
2018-07-21T20:31:22.171Z,9.08
2018-07-21T20:33:50.516Z,11.48
2018-07-21T20:36:18.587Z,10.78
2018-07-21T20:38:46.926Z,7.67
2018-07-21T20:41:16.458Z,8.20
2018-07-21T20:43:44.917Z,11.83
2018-07-21T20:46:13.368Z,9.05
2018-07-21T20:48:42.032Z,9.53
2018-07-21T20:51:10.355Z,9.55
2018-07-21T20:53:38.426Z,9.67
2018-07-21T20:56:06.496Z,9.97
2018-07-21T20:58:34.627Z,11.40
2018-07-21T21:01:02.975Z,10.13
2018-07-21T21:03:31.340Z,12.15
2018-07-21T21:05:59.654Z,15.60
2018-07-21T21:08:27.998Z,19.37
2018-07-21T21:10:56.320Z,19.50
2018-07-21T21:13:24.672Z,19.42
2018-07-21T21:15:53.012Z,17.10
2018-07-21T21:18:21.384Z,19.27
2018-07-21T21:20:49.748Z,16.57
2018-07-21T21:23:18.560Z,13.53
2018-07-21T21:25:46.919Z,17.67
2018-07-21T21:28:15.235Z,13.73
2018-07-21T21:30:43.589Z,13.07
2018-07-21T21:33:11.967Z,13.40
2018-07-21T21:35:40.334Z,15.47
2018-07-21T21:38:08.671Z,12.90
2018-07-21T21:40:37.020Z,14.43
2018-07-21T21:43:05.564Z,13.70
2018-07-21T21:45:33.984Z,13.23
2018-07-21T21:48:02.091Z,12.93
2018-07-21T21:50:30.424Z,15.93
2018-07-21T21:52:58.754Z,12.50
2018-07-21T21:55:27.186Z,10.73
2018-07-21T21:57:55.539Z,11.03
2018-07-21T22:00:23.912Z,10.57
2018-07-21T22:02:52.240Z,11.73
2018-07-21T22:05:20.591Z,10.83
2018-07-21T22:07:48.904Z,11.47
2018-07-21T22:10:17.040Z,11.53
2018-07-21T22:12:45.416Z,13.07
2018-07-21T22:15:20.384Z,13.73
2018-07-21T22:17:48.769Z,14.03
2018-07-21T22:20:17.107Z,12.17
2018-07-21T22:22:45.812Z,14.07
2018-07-21T22:25:14.151Z,13.43
2018-07-21T22:27:42.564Z,17.03
2018-07-21T22:30:15.952Z,14.33
2018-07-21T22:32:44.276Z,13.63
2018-07-21T22:35:12.591Z,14.83
2018-07-21T22:37:41.077Z,14.23
2018-07-21T22:40:09.484Z,16.97
2018-07-21T22:42:37.826Z,13.30
2018-07-21T22:45:06.195Z,14.50
2018-07-21T22:47:34.556Z,18.50
2018-07-21T22:50:02.896Z,16.27
2018-07-21T22:52:31.248Z,13.43
2018-07-21T22:54:59.563Z,14.43
2018-07-21T22:57:28.015Z,12.87
2018-07-21T22:59:56.384Z,13.40
2018-07-21T23:02:25.902Z,14.43
2018-07-21T23:04:54.239Z,14.57
2018-07-21T23:07:22.586Z,13.73
2018-07-21T23:09:50.916Z,15.10
2018-07-21T23:12:21.518Z,14.50
2018-07-21T23:14:49.587Z,16.47
2018-07-21T23:17:17.943Z,18.10
2018-07-21T23:19:46.264Z,16.30
2018-07-21T23:22:14.725Z,16.20
2018-07-21T23:24:42.807Z,18.30
2018-07-21T23:27:11.288Z,16.80
2018-07-21T23:29:39.606Z,16.50
2018-07-21T23:32:08.062Z,15.17
2018-07-21T23:34:36.385Z,15.80
2018-07-21T23:37:04.835Z,17.27
2018-07-21T23:39:33.165Z,16.13
2018-07-21T23:42:01.526Z,16.80
2018-07-21T23:44:29.854Z,16.07
2018-07-21T23:46:58.195Z,15.37
2018-07-21T23:49:26.510Z,16.00
2018-07-21T23:51:54.855Z,15.93
2018-07-21T23:54:23.171Z,17.13
2018-07-21T23:56:51.518Z,15.87
2018-07-21T23:59:19.602Z,15.57
